Time;durP1;ratioP1;P1;durP2;ratioP2;P2;SDS_P1;SDS_P2;PMS_P1;PMS_P2;Temp;Humidity;BMP_temperature;BMP_pressure;BME280_temperature;BME280_humidity;BME280_pressure;Samples;Min_cycle;Max_cycle;Signal;HPM_P1;HPM_P2
2023/01/20 00:00:04;;;;;;;;;;;;;;;-0.97;94.17;95755.09;5074303;28;20366;-72
2023/01/20 00:02:30;;;;;;;;;;;;;;;-0.97;94.12;95762.00;5073850;28;19981;-72
2023/01/20 00:04:56;;;;;;;;;;;;;;;-0.98;94.14;95757.84;5072829;28;20423;-72
2023/01/20 00:07:22;;;;;;;;;;;;;;;-0.99;93.97;95759.59;5073813;28;19978;-72
2023/01/20 00:09:48;;;;;;;;;;;;;;;-0.99;93.95;95761.38;5073884;28;20009;-72
2023/01/20 00:12:13;;;;;;;;;;;;;;;-1.02;94.10;95760.72;5074216;28;20021;-72
2023/01/20 00:14:39;;;;;;;;;;;;;;;-1.03;93.97;95764.28;5073638;28;19950;-72
2023/01/20 00:17:05;;;;;;;;;;;;;;;-1.05;93.81;95766.22;5073479;28;19953;-72
2023/01/20 00:19:31;;;;;;;;;;;;;;;-1.05;94.07;95773.09;5073660;28;19951;-73
2023/01/20 00:21:57;;;;;;;;;;;;;;;-1.08;94.10;95774.22;5073451;28;19998;-72
2023/01/20 00:24:23;;;;;;;;;;;;;;;-1.09;94.26;95771.81;5056012;28;19960;-72
2023/01/20 00:26:49;;;;;;;;;;;;;;;-1.09;94.49;95769.25;5073640;28;20036;-72
2023/01/20 00:29:15;;;;;;;;;;;;;;;-1.10;94.56;95773.59;5073606;28;19957;-72
2023/01/20 00:31:40;;;;;;;;;;;;;;;-1.10;94.59;95773.59;5073397;28;20355;-72
2023/01/20 00:34:08;;;;;;;;;;;;;;;-1.09;94.57;95785.50;5073573;28;19994;-72
2023/01/20 00:36:34;;;;;;;;;;;;;;;-1.09;94.74;95787.25;5073530;28;20308;-72
2023/01/20 00:39:01;;;;;;;;;;;;;;;-1.09;94.90;95785.50;5073391;28;19939;-72
2023/01/20 00:41:27;;;;;;;;;;;;;;;-1.08;94.82;95792.25;5073116;28;19982;-72
2023/01/20 00:43:53;;;;;;;;;;;;;;;-1.08;94.76;95788.88;5073611;28;19956;-72
2023/01/20 00:46:21;;;;;;;;;;;;;;;-1.09;94.90;95794.97;5073248;28;19971;-72
2023/01/20 00:48:47;;;;;;;;;;;;;;;-1.08;94.94;95801.75;5073211;28;19951;-72
2023/01/20 00:51:14;;;;;;;;;;;;;;;-1.07;94.72;95799.03;5072630;28;19953;-72
2023/01/20 00:53:40;;;;;;;;;;;;;;;-1.09;95.08;95802.69;5073231;28;19944;-72
2023/01/20 00:56:06;;;;;;;;;;;;;;;-1.08;95.49;95807.69;5072168;28;19959;-72
2023/01/20 00:58:32;;;;;;;;;;;;;;;-1.07;95.35;95811.06;5073233;28;19957;-72
2023/01/20 01:00:58;;;;;;;;;;;;;;;-1.07;95.30;95814.47;5073293;28;19946;-72
2023/01/20 01:03:26;;;;;;;;;;;;;;;-1.06;95.15;95810.91;5075969;28;19947;-72
2023/01/20 01:05:52;;;;;;;;;;;;;;;-1.06;95.37;95807.53;5077398;28;19964;-72
2023/01/20 01:08:18;;;;;;;;;;;;;;;-1.06;95.21;95822.97;5077073;28;20037;-72
2023/01/20 01:10:44;;;;;;;;;;;;;;;-1.06;95.48;95816.06;5077183;28;20001;-72
2023/01/20 01:13:10;;;;;;;;;;;;;;;-1.08;95.54;95828.28;5077138;28;19961;-72
2023/01/20 01:15:36;;;;;;;;;;;;;;;-1.09;95.73;95826.69;5076979;28;19962;-72
2023/01/20 01:18:02;;;;;;;;;;;;;;;-1.08;95.90;95824.91;5077206;28;19959;-72
2023/01/20 01:20:28;;;;;;;;;;;;;;;-1.08;95.87;95825.69;5076940;28;19941;-72
2023/01/20 01:22:54;;;;;;;;;;;;;;;-1.06;95.88;95830.69;5077217;28;20030;-72
2023/01/20 01:25:20;;;;;;;;;;;;;;;-1.06;95.73;95841.00;5077107;28;19949;-72
2023/01/20 01:27:46;;;;;;;;;;;;;;;-1.06;95.72;95841.00;5076898;28;19970;-73
2023/01/20 01:30:12;;;;;;;;;;;;;;;-1.03;95.94;95843.22;5076987;28;19956;-72
2023/01/20 01:32:38;;;;;;;;;;;;;;;-1.05;95.94;95845.16;5077097;28;19948;-72
2023/01/20 01:35:04;;;;;;;;;;;;;;;-1.05;96.03;95851.13;5076674;28;19952;-72
2023/01/20 01:37:30;;;;;;;;;;;;;;;-1.04;96.05;95852.72;5076703;28;19977;-72
2023/01/20 01:39:55;;;;;;;;;;;;;;;-1.05;96.19;95851.13;5076574;28;20401;-73
2023/01/20 01:42:23;;;;;;;;;;;;;;;-1.04;96.00;95855.28;5076350;28;19976;-73
2023/01/20 01:45:07;;;;;;;;;;;;;;;-1.04;96.44;95859.63;5076909;28;19945;-72
2023/01/20 01:47:33;;;;;;;;;;;;;;;-1.04;96.17;95864.78;5075372;28;19969;-72
2023/01/20 01:49:59;;;;;;;;;;;;;;;-1.03;96.08;95861.25;5075345;28;19959;-73
2023/01/20 01:52:25;;;;;;;;;;;;;;;-1.04;96.02;95859.63;5076942;28;19948;-72
2023/01/20 01:54:52;;;;;;;;;;;;;;;-1.04;96.13;95863.00;5076439;28;20396;-73
2023/01/20 01:57:18;;;;;;;;;;;;;;;-1.05;95.73;95858.84;5077176;28;19955;-72
2023/01/20 01:59:44;;;;;;;;;;;;;;;-1.06;95.80;95859.78;5076668;28;19954;-72
2023/01/20 02:02:10;;;;;;;;;;;;;;;-1.05;95.98;95858.84;5076451;28;19975;-72
2023/01/20 02:04:37;;;;;;;;;;;;;;;-1.03;95.99;95861.25;5076381;28;19956;-73
2023/01/20 02:07:04;;;;;;;;;;;;;;;-1.04;95.79;95857.88;5076185;28;19970;-72
2023/01/20 02:09:30;;;;;;;;;;;;;;;-1.03;95.70;95858.66;5075958;28;19955;-72
2023/01/20 02:11:59;;;;;;;;;;;;;;;-1.05;95.79;95860.59;5076315;28;19952;-72
2023/01/20 02:14:29;;;;;;;;;;;;;;;-1.06;95.49;95862.38;5075005;28;19957;-72
2023/01/20 02:17:01;;;;;;;;;;;;;;;-1.08;95.59;95863.50;5076460;28;20334;-72
2023/01/20 02:19:36;;;;;;;;;;;;;;;-1.09;95.59;95867.03;5076214;28;20412;-72
2023/01/20 02:22:25;;;;;;;;;;;;;;;-1.11;95.67;95874.13;5065036;28;19950;-73
2023/01/20 02:25:09;;;;;;;;;;;;;;;-1.13;95.53;95871.69;5047176;28;19964;-72
2023/01/20 02:27:53;;;;;;;;;;;;;;;-1.14;95.33;95877.00;5076282;28;19967;-73
2023/01/20 02:30:25;;;;;;;;;;;;;;;-1.14;95.26;95877.00;5074780;28;20443;-73
2023/01/20 02:33:03;;;;;;;;;;;;;;;-1.16;95.46;95879.72;5075736;28;20411;-72
2023/01/20 02:35:32;;;;;;;;;;;;;;;-1.16;95.54;95876.34;5075873;28;19958;-72
2023/01/20 02:38:10;;;;;;;;;;;;;;;-1.17;95.35;95877.31;5075664;28;20411;-72
2023/01/20 02:40:45;;;;;;;;;;;;;;;-1.20;95.44;95873.28;5076113;28;19956;-72
2023/01/20 02:43:17;;;;;;;;;;;;;;;-1.21;95.28;95881.97;5066648;28;19977;-73
2023/01/20 02:45:50;;;;;;;;;;;;;;;-1.25;95.29;95875.53;5075881;28;20405;-72
2023/01/20 02:48:23;;;;;;;;;;;;;;;-1.27;95.28;95883.41;5075557;28;19961;-72
2023/01/20 02:51:01;;;;;;;;;;;;;;;-1.29;94.93;95881.97;5075486;28;19949;-73
2023/01/20 02:53:32;;;;;;;;;;;;;;;-1.33;95.08;95886.59;5075577;28;20438;-72
2023/01/20 02:55:58;;;;;;;;;;;;;;;-1.34;95.23;95882.44;5075613;28;19947;-73
2023/01/20 02:58:27;;;;;;;;;;;;;;;-1.35;95.00;95892.88;5075462;28;20428;-72
2023/01/20 03:01:23;;;;;;;;;;;;;;;-1.38;95.24;95891.44;5075364;28;19949;-73
2023/01/20 03:03:51;;;;;;;;;;;;;;;-1.41;95.08;95891.72;5061578;28;19946;-73
2023/01/20 03:06:19;;;;;;;;;;;;;;;-1.43;95.26;95888.50;5074957;28;19950;-72
2023/01/20 03:08:47;;;;;;;;;;;;;;;-1.44;94.86;95902.34;5074992;28;20341;-72
2023/01/20 03:11:13;;;;;;;;;;;;;;;-1.44;95.10;95889.47;5075217;28;19955;-72
2023/01/20 03:14:15;;;;;;;;;;;;;;;-1.45;95.20;95904.09;5075096;28;19960;-72
2023/01/20 03:16:41;;;;;;;;;;;;;;;-1.48;95.21;95901.84;4986994;28;19955;-72
2023/01/20 03:19:07;;;;;;;;;;;;;;;-1.49;95.26;95904.56;5041019;28;19956;-72
2023/01/20 03:21:33;;;;;;;;;;;;;;;-1.51;95.32;95912.44;5075416;28;20027;-72
2023/01/20 03:24:00;;;;;;;;;;;;;;;-1.51;95.25;95917.59;5074955;28;19951;-72
2023/01/20 03:26:26;;;;;;;;;;;;;;;-1.53;95.27;95911.78;5074498;28;19973;-72
2023/01/20 03:28:55;;;;;;;;;;;;;;;-1.53;95.39;95913.56;5074687;28;19941;-72
2023/01/20 03:31:27;;;;;;;;;;;;;;;-1.54;95.40;95922.22;5074539;28;20293;-72
2023/01/20 03:33:54;;;;;;;;;;;;;;;-1.59;95.09;95914.19;5075111;28;19949;-72
2023/01/20 03:36:22;;;;;;;;;;;;;;;-1.66;95.14;95919.13;5074567;28;20358;-72
2023/01/20 03:38:48;;;;;;;;;;;;;;;-1.73;94.59;95921.50;5074469;28;19948;-73
2023/01/20 03:41:17;;;;;;;;;;;;;;;-1.81;94.82;95921.47;5074458;28;19949;-72
2023/01/20 03:43:54;;;;;;;;;;;;;;;-1.86;94.93;95928.84;5074597;28;19960;-72
2023/01/20 03:46:27;;;;;;;;;;;;;;;-1.94;94.75;95929.59;5074199;28;19951;-72
2023/01/20 03:49:00;;;;;;;;;;;;;;;-1.99;95.28;95929.25;5074426;28;19952;-72
2023/01/20 03:51:33;;;;;;;;;;;;;;;-2.02;95.13;95934.69;5074210;28;20292;-73
2023/01/20 03:54:05;;;;;;;;;;;;;;;-2.05;95.60;95940.13;5073523;28;20328;-72
2023/01/20 03:56:44;;;;;;;;;;;;;;;-2.07;96.11;95948.00;5074111;28;19943;-72
2023/01/20 03:59:13;;;;;;;;;;;;;;;-2.10;96.07;95950.88;5074789;28;19949;-72
2023/01/20 04:01:41;;;;;;;;;;;;;;;-2.09;96.16;95946.53;5074103;28;19946;-72
2023/01/20 04:04:10;;;;;;;;;;;;;;;-2.09;96.19;95949.91;5074133;28;20330;-72
2023/01/20 04:06:36;;;;;;;;;;;;;;;-2.07;96.38;95948.00;5074161;28;20338;-72
2023/01/20 04:09:09;;;;;;;;;;;;;;;-2.04;96.64;95952.00;5074223;28;19955;-72
2023/01/20 04:11:35;;;;;;;;;;;;;;;-2.00;96.77;95955.09;5072591;28;19950;-72
2023/01/20 04:14:01;;;;;;;;;;;;;;;-1.98;96.68;95946.28;5074293;28;19951;-72
2023/01/20 04:16:27;;;;;;;;;;;;;;;-1.95;96.49;95951.13;5073918;28;19973;-72
2023/01/20 04:18:53;;;;;;;;;;;;;;;-1.92;96.68;95947.44;5073574;28;19954;-73
2023/01/20 04:21:22;;;;;;;;;;;;;;;-1.92;96.51;95950.81;5073787;28;19946;-73
2023/01/20 04:23:54;;;;;;;;;;;;;;;-1.90;96.52;95956.59;5073509;28;19950;-73
2023/01/20 04:26:20;;;;;;;;;;;;;;;-1.88;96.48;95957.25;5073705;28;19949;-73
2023/01/20 04:28:46;;;;;;;;;;;;;;;-1.86;96.50;95957.91;5073634;28;20081;-73
2023/01/20 04:31:13;;;;;;;;;;;;;;;-1.83;96.04;95959.34;5072459;28;19954;-73
2023/01/20 04:33:40;;;;;;;;;;;;;;;-1.84;96.28;95961.13;5073470;28;19959;-73
2023/01/20 04:36:06;;;;;;;;;;;;;;;-1.84;96.26;95962.91;5073744;28;19949;-73
2023/01/20 04:38:32;;;;;;;;;;;;;;;-1.81;96.46;95969.50;5073454;28;20415;-72
2023/01/20 04:40:57;;;;;;;;;;;;;;;-1.80;96.35;95969.34;5073899;28;19954;-73
2023/01/20 04:43:23;;;;;;;;;;;;;;;-1.78;96.52;95969.22;5073785;28;19980;-72
2023/01/20 04:45:49;;;;;;;;;;;;;;;-1.77;96.54;95971.59;5073316;28;19988;-72
2023/01/20 04:48:15;;;;;;;;;;;;;;;-1.76;96.50;95973.22;5073524;28;20387;-72
2023/01/20 04:50:41;;;;;;;;;;;;;;;-1.74;96.59;95980.75;5073291;28;19997;-72
2023/01/20 04:53:11;;;;;;;;;;;;;;;-1.74;96.73;95983.34;5073297;28;19947;-72
2023/01/20 04:55:36;;;;;;;;;;;;;;;-1.72;96.47;95986.56;5072263;28;19948;-72
2023/01/20 04:58:02;;;;;;;;;;;;;;;-1.71;96.40;95993.34;5073296;28;20012;-72
2023/01/20 05:00:28;;;;;;;;;;;;;;;-1.70;96.52;95995.75;5073376;28;20013;-72
2023/01/20 05:02:57;;;;;;;;;;;;;;;-1.69;96.48;96005.06;5073176;28;20036;-72
2023/01/20 05:05:23;;;;;;;;;;;;;;;-1.68;96.45;96005.88;5073218;28;20339;-73
2023/01/20 05:07:53;;;;;;;;;;;;;;;-1.66;96.68;96009.91;5073133;28;19960;-73
2023/01/20 05:10:19;;;;;;;;;;;;;;;-1.63;96.43;96013.94;5073726;28;19954;-72
2023/01/20 05:12:45;;;;;;;;;;;;;;;-1.63;96.37;96019.09;5073163;28;19952;-72
2023/01/20 05:15:11;;;;;;;;;;;;;;;-1.61;96.46;96017.16;5071856;28;20013;-73
2023/01/20 05:17:36;;;;;;;;;;;;;;;-1.59;96.39;96020.41;5072070;28;19956;-73
2023/01/20 05:20:02;;;;;;;;;;;;;;;-1.58;95.95;96021.19;5073308;28;19954;-73
2023/01/20 05:22:31;;;;;;;;;;;;;;;-1.57;95.81;96023.63;5073192;28;19964;-73
2023/01/20 05:24:58;;;;;;;;;;;;;;;-1.55;95.89;96028.63;5073053;28;19953;-73
2023/01/20 05:27:24;;;;;;;;;;;;;;;-1.56;95.75;96020.06;5072973;28;19963;-73
2023/01/20 05:29:50;;;;;;;;;;;;;;;-1.55;95.69;96024.28;5073000;28;19955;-73
2023/01/20 05:32:16;;;;;;;;;;;;;;;-1.53;95.72;96034.41;5073116;28;19951;-73
2023/01/20 05:34:41;;;;;;;;;;;;;;;-1.54;95.84;96033.59;5073221;28;19949;-72
2023/01/20 05:37:07;;;;;;;;;;;;;;;-1.55;95.88;96036.34;5073106;28;19948;-72
2023/01/20 05:39:33;;;;;;;;;;;;;;;-1.53;96.06;96039.56;5073471;28;19954;-72
2023/01/20 05:41:59;;;;;;;;;;;;;;;-1.57;96.13;96049.34;5072901;28;19969;-73
2023/01/20 05:44:25;;;;;;;;;;;;;;;-1.56;96.00;96048.38;5071647;28;19959;-72
2023/01/20 05:46:51;;;;;;;;;;;;;;;-1.57;95.54;96046.75;5072869;28;19986;-73
2023/01/20 05:49:17;;;;;;;;;;;;;;;-1.58;95.14;96045.13;5075471;28;19947;-73
2023/01/20 05:51:43;;;;;;;;;;;;;;;-1.61;95.16;96050.59;5076700;28;19949;-73
2023/01/20 05:54:09;;;;;;;;;;;;;;;-1.66;95.93;96048.47;5076363;28;20014;-72
2023/01/20 05:56:35;;;;;;;;;;;;;;;-1.67;96.19;96059.72;5076508;28;20047;-73
2023/01/20 05:59:00;;;;;;;;;;;;;;;-1.66;96.44;96068.22;5076386;28;19997;-72
2023/01/20 06:01:27;;;;;;;;;;;;;;;-1.65;96.26;96069.84;5076109;28;20336;-73
2023/01/20 06:03:52;;;;;;;;;;;;;;;-1.68;96.44;96065.00;5076837;28;20447;-73
2023/01/20 06:06:18;;;;;;;;;;;;;;;-1.74;97.16;96073.31;5076361;28;19958;-73
2023/01/20 06:08:44;;;;;;;;;;;;;;;-1.77;97.21;96076.19;5075946;28;19979;-73
2023/01/20 06:11:12;;;;;;;;;;;;;;;-1.77;97.24;96082.13;5076118;28;20341;-72
2023/01/20 06:13:38;;;;;;;;;;;;;;;-1.77;97.03;96089.03;5075247;28;19945;-72
2023/01/20 06:16:05;;;;;;;;;;;;;;;-1.75;97.26;96087.13;5076163;28;19955;-72
2023/01/20 06:18:32;;;;;;;;;;;;;;;-1.74;97.36;96086.16;5075930;28;19939;-72
2023/01/20 06:20:58;;;;;;;;;;;;;;;-1.73;97.03;96087.78;5076099;28;19945;-72
2023/01/20 06:23:24;;;;;;;;;;;;;;;-1.73;97.06;96098.88;5076140;28;19952;-72
2023/01/20 06:25:57;;;;;;;;;;;;;;;-1.75;96.55;96093.06;5075925;28;20001;-73
2023/01/20 06:28:23;;;;;;;;;;;;;;;-1.77;96.18;96094.19;5076177;28;20343;-73
2023/01/20 06:30:48;;;;;;;;;;;;;;;-1.82;96.44;96102.34;5075018;28;19952;-73
2023/01/20 06:33:14;;;;;;;;;;;;;;;-1.82;96.69;96106.69;5075802;28;20355;-73
2023/01/20 06:35:40;;;;;;;;;;;;;;;-1.83;96.74;96108.44;5075612;28;20367;-73
2023/01/20 06:38:06;;;;;;;;;;;;;;;-1.82;96.58;96107.50;5075960;28;20377;-73
2023/01/20 06:40:32;;;;;;;;;;;;;;;-1.81;96.48;96113.44;5074269;28;20318;-73
2023/01/20 06:42:58;;;;;;;;;;;;;;;-1.80;96.54;96120.19;5076153;28;19975;-73
2023/01/20 06:45:23;;;;;;;;;;;;;;;-1.79;96.78;96121.78;5075458;28;19959;-73
2023/01/20 06:47:49;;;;;;;;;;;;;;;-1.79;96.75;96121.78;5075520;28;20005;-73
2023/01/20 06:50:15;;;;;;;;;;;;;;;-1.77;96.94;96122.47;5075345;28;19951;-73
2023/01/20 06:52:41;;;;;;;;;;;;;;;-1.77;96.95;96125.03;5074140;28;19985;-73
2023/01/20 06:55:07;;;;;;;;;;;;;;;-1.77;96.90;96130.16;5075570;28;20426;-73
2023/01/20 06:57:33;;;;;;;;;;;;;;;-1.76;96.87;96135.16;5075306;28;19949;-72
2023/01/20 06:59:59;;;;;;;;;;;;;;;-1.76;96.77;96131.78;5075158;28;19978;-72
2023/01/20 07:02:24;;;;;;;;;;;;;;;-1.76;96.60;96136.94;5075254;28;19954;-72
2023/01/20 07:04:51;;;;;;;;;;;;;;;-1.78;96.62;96131.94;5075549;28;19979;-72
2023/01/20 07:07:17;;;;;;;;;;;;;;;-1.78;96.70;96142.22;5075043;28;20343;-72
2023/01/20 07:09:43;;;;;;;;;;;;;;;-1.79;96.29;96143.16;5074828;28;20037;-72
2023/01/20 07:12:09;;;;;;;;;;;;;;;-1.80;96.10;96145.91;5075372;28;19946;-72
2023/01/20 07:14:35;;;;;;;;;;;;;;;-1.81;95.99;96144.28;5075096;28;19992;-72
2023/01/20 07:17:00;;;;;;;;;;;;;;;-1.82;95.42;96152.94;5075469;28;19954;-72
2023/01/20 07:19:26;;;;;;;;;;;;;;;-1.82;95.45;96152.94;5074920;28;20058;-72
2023/01/20 07:21:52;;;;;;;;;;;;;;;-1.66;100.00;96173.63;5074891;28;20007;-72
2023/01/20 07:24:18;;;;;;;;;;;;;;;-1.59;99.40;96158.44;5074956;28;19945;-72
2023/01/20 07:26:44;;;;;;;;;;;;;;;-1.61;96.31;96150.06;5074772;28;20648;-72
2023/01/20 07:29:10;;;;;;;;;;;;;;;-1.67;95.24;96147.13;5075179;28;20322;-72
2023/01/20 07:31:36;;;;;;;;;;;;;;;-1.72;94.68;96156.22;5074581;28;19945;-72
2023/01/20 07:34:02;;;;;;;;;;;;;;;-1.78;94.18;96159.41;5075096;28;19960;-72
2023/01/20 07:36:28;;;;;;;;;;;;;;;-1.83;93.90;96162.41;5074786;28;20426;-73
2023/01/20 07:38:54;;;;;;;;;;;;;;;-1.91;93.90;96160.59;5074410;28;19960;-72
2023/01/20 07:41:20;;;;;;;;;;;;;;;-1.96;93.81;96169.69;5074404;28;20000;-72
2023/01/20 07:43:48;;;;;;;;;;;;;;;-1.98;93.75;96174.97;5073359;28;19944;-72
2023/01/20 07:46:14;;;;;;;;;;;;;;;-2.01;94.17;96182.97;5074587;28;20279;-72
2023/01/20 07:48:40;;;;;;;;;;;;;;;-2.02;94.22;96188.25;5074201;28;19973;-72
2023/01/20 07:51:07;;;;;;;;;;;;;;;-2.03;94.11;96194.34;5074320;28;19947;-74
2023/01/20 07:53:37;;;;;;;;;;;;;;;-2.02;94.29;96196.75;5074025;28;20260;-72
2023/01/20 07:56:09;;;;;;;;;;;;;;;-1.98;94.55;96194.72;5074277;28;19951;-72
2023/01/20 07:58:35;;;;;;;;;;;;;;;-1.96;94.97;96200.50;5074119;28;19951;-72
2023/01/20 08:01:07;;;;;;;;;;;;;;;-1.93;95.47;96208.75;5074322;28;19953;-72
2023/01/20 08:03:33;;;;;;;;;;;;;;;-1.89;95.37;96215.22;5074113;28;21422;-72
2023/01/20 08:06:06;;;;;;;;;;;;;;;-1.85;95.20;96215.72;5074178;28;19941;-71
2023/01/20 08:08:32;;;;;;;;;;;;;;;-1.81;94.95;96216.25;5074056;28;19963;-72
2023/01/20 08:11:00;;;;;;;;;;;;;;;-1.77;95.02;96217.56;5073785;28;19942;-72
2023/01/20 08:13:26;;;;;;;;;;;;;;;-1.72;95.10;96216.19;5073280;28;19978;-72
2023/01/20 08:15:52;;;;;;;;;;;;;;;-1.68;95.34;96222.66;5074033;28;19974;-72
2023/01/20 08:18:18;;;;;;;;;;;;;;;-1.63;95.38;96229.91;5073710;28;20029;-72
2023/01/20 08:20:44;;;;;;;;;;;;;;;-1.60;95.18;96229.59;5074080;28;19999;-72
2023/01/20 08:23:09;;;;;;;;;;;;;;;-1.58;95.09;96237.97;5106653;28;19953;-72
2023/01/20 08:25:35;;;;;;;;;;;;;;;-1.56;94.78;96237.84;5073597;28;19952;-72
2023/01/20 08:28:01;;;;;;;;;;;;;;;-1.53;95.33;96242.72;5073654;28;19964;-72
2023/01/20 08:30:27;;;;;;;;;;;;;;;-1.49;95.45;96241.44;5073805;28;19952;-73
2023/01/20 08:32:53;;;;;;;;;;;;;;;-1.46;95.26;96241.94;5073081;28;19954;-73
2023/01/20 08:35:19;;;;;;;;;;;;;;;-1.43;95.03;96248.56;5073827;28;19954;-73
2023/01/20 08:37:45;;;;;;;;;;;;;;;-1.37;95.35;96260.03;5073916;28;20322;-73
2023/01/20 08:40:11;;;;;;;;;;;;;;;-1.34;95.28;96252.84;5073523;28;19950;-73
2023/01/20 08:42:37;;;;;;;;;;;;;;;-1.28;95.06;96257.38;5073441;28;20491;-73
2023/01/20 08:45:04;;;;;;;;;;;;;;;-1.20;95.29;96259.19;5073843;28;20320;-73
2023/01/20 08:47:30;;;;;;;;;;;;;;;-1.13;94.97;96259.44;5073428;28;19943;-73
2023/01/20 08:49:56;;;;;;;;;;;;;;;-1.08;95.23;96262.34;5073585;28;19953;-73
2023/01/20 08:52:22;;;;;;;;;;;;;;;-1.02;94.75;96264.31;5073351;28;20356;-73
2023/01/20 08:54:50;;;;;;;;;;;;;;;-0.98;94.41;96270.00;5073608;28;20312;-73
2023/01/20 08:57:16;;;;;;;;;;;;;;;-0.94;93.85;96264.38;5063581;28;19952;-73
2023/01/20 08:59:43;;;;;;;;;;;;;;;-0.88;98.27;96288.72;5073341;28;19944;-72
2023/01/20 09:02:09;;;;;;;;;;;;;;;-0.68;99.17;96287.56;5073392;28;20022;-73
2023/01/20 09:04:36;;;;;;;;;;;;;;;-0.59;94.83;96261.84;5073645;28;19943;-73
2023/01/20 09:07:02;;;;;;;;;;;;;;;-0.58;93.48;96260.91;5073280;28;20433;-73
2023/01/20 09:09:27;;;;;;;;;;;;;;;-0.60;92.89;96262.84;5073189;28;19969;-73
2023/01/20 09:11:53;;;;;;;;;;;;;;;-0.66;92.88;96270.19;5073546;28;19954;-73
2023/01/20 09:14:20;;;;;;;;;;;;;;;-0.64;93.42;96276.00;5073404;28;20035;-73
2023/01/20 09:16:47;;;;;;;;;;;;;;;-0.63;92.92;96275.06;5071842;28;19948;-73
2023/01/20 09:19:13;;;;;;;;;;;;;;;-0.63;92.99;96272.47;5072603;28;19953;-73
2023/01/20 09:21:39;;;;;;;;;;;;;;;-0.64;92.87;96283.72;5073822;28;19942;-73
2023/01/20 09:24:05;;;;;;;;;;;;;;;-0.68;93.07;96284.19;5075742;28;20308;-73
2023/01/20 09:26:37;;;;;;;;;;;;;;;-0.74;93.41;96285.59;5077081;28;19967;-73
2023/01/20 09:29:07;;;;;;;;;;;;;;;-0.82;93.02;96300.97;5077192;28;19960;-73
2023/01/20 09:31:37;;;;;;;;;;;;;;;-0.92;93.70;96295.94;5077001;28;19947;-73
2023/01/20 09:34:03;;;;;;;;;;;;;;;-0.98;93.41;96299.09;5076999;28;19948;-73
2023/01/20 09:36:29;;;;;;;;;;;;;;;-0.99;94.48;96306.97;5077220;28;19957;-73
2023/01/20 09:44:41;;;;;;;;;;;;;;;-0.82;93.78;96308.69;5077268;28;19956;-73
2023/01/20 09:47:19;;;;;;;;;;;;;;;-0.76;93.73;96315.81;5069201;28;19950;-73
2023/01/20 09:53:04;;;;;;;;;;;;;;;-0.70;92.99;96320.38;5076803;28;20392;-73
2023/01/20 09:55:39;;;;;;;;;;;;;;;-0.69;93.67;96324.59;5077098;28;20425;-73
2023/01/20 09:58:28;;;;;;;;;;;;;;;-0.75;93.07;96314.88;5076884;28;19961;-73
2023/01/20 10:00:59;;;;;;;;;;;;;;;-0.75;94.08;96332.09;5068194;28;19948;-73
2023/01/20 10:03:38;;;;;;;;;;;;;;;-0.74;93.97;96324.22;5076336;28;19953;-73
2023/01/20 10:06:08;;;;;;;;;;;;;;;-0.73;93.99;96330.19;5076689;28;19955;-73
2023/01/20 10:08:51;;;;;;;;;;;;;;;-0.68;92.87;96326.19;5076268;28;19965;-73
2023/01/20 10:11:19;;;;;;;;;;;;;;;-0.71;92.95;96323.94;5068994;28;19953;-73
2023/01/20 10:13:50;;;;;;;;;;;;;;;-0.77;92.78;96329.66;5076319;28;19956;-73
2023/01/20 10:16:20;;;;;;;;;;;;;;;-0.79;93.24;96330.78;5076416;28;19944;-73
2023/01/20 10:18:48;;;;;;;;;;;;;;;-0.79;92.28;96328.22;5076071;28;19944;-73
2023/01/20 10:21:18;;;;;;;;;;;;;;;-0.68;92.61;96330.53;5076130;28;19948;-73
2023/01/20 10:23:48;;;;;;;;;;;;;;;-0.42;93.03;96336.53;5075923;28;19946;-73
2023/01/20 10:26:17;;;;;;;;;;;;;;;-0.23;90.75;96314.09;5076066;28;19947;-73
2023/01/20 10:28:48;;;;;;;;;;;;;;;-0.20;90.00;96308.59;5076525;28;19955;-73
2023/01/20 10:31:17;;;;;;;;;;;;;;;-0.19;90.14;96311.97;5076024;28;20408;-73
2023/01/20 10:33:43;;;;;;;;;;;;;;;-0.24;89.10;96302.13;5075820;28;19958;-75
2023/01/20 10:36:22;;;;;;;;;;;;;;;-0.28;89.94;96316.28;5075433;28;19952;-73
2023/01/20 10:38:59;;;;;;;;;;;;;;;-0.27;89.57;96312.78;5075691;28;19959;-73
2023/01/20 10:41:31;;;;;;;;;;;;;;;-0.25;89.47;96309.06;5075681;28;20367;-73
2023/01/20 10:43:58;;;;;;;;;;;;;;;-0.21;89.39;96314.72;5075732;28;19954;-73
2023/01/20 10:46:32;;;;;;;;;;;;;;;-0.14;89.61;96314.94;5075098;28;20459;-73
2023/01/20 10:49:07;;;;;;;;;;;;;;;-0.11;89.16;96305.09;5075500;28;19968;-73
2023/01/20 10:51:33;;;;;;;;;;;;;;;-0.21;88.68;96307.81;5075699;28;19946;-73
2023/01/20 10:54:05;;;;;;;;;;;;;;;-0.19;89.61;96312.78;5075642;28;19943;-73
2023/01/20 10:56:31;;;;;;;;;;;;;;;-0.08;88.87;96309.94;5075416;28;19945;-73
2023/01/20 10:59:01;;;;;;;;;;;;;;;-0.03;89.25;96306.91;5075113;28;19997;-73
2023/01/20 11:01:27;;;;;;;;;;;;;;;0.10;88.50;96307.28;5075152;28;19942;-73
2023/01/20 11:03:53;;;;;;;;;;;;;;;0.19;89.20;96308.94;5075876;28;19993;-72
2023/01/20 11:06:20;;;;;;;;;;;;;;;0.85;100.00;96365.84;5074994;28;19951;-72
2023/01/20 11:08:46;;;;;;;;;;;;;;;1.07;87.77;96273.22;5074876;28;19956;-72
2023/01/20 11:11:15;;;;;;;;;;;;;;;1.13;87.34;96278.56;5074884;28;20321;-72
2023/01/20 11:13:41;;;;;;;;;;;;;;;1.11;85.65;96271.94;5075010;28;20346;-72
2023/01/20 11:16:12;;;;;;;;;;;;;;;1.17;86.10;96279.03;5074251;28;19967;-72
2023/01/20 11:18:38;;;;;;;;;;;;;;;1.26;84.47;96270.34;5074846;28;19936;-72
2023/01/20 11:21:10;;;;;;;;;;;;;;;1.28;84.32;96273.56;5075004;28;20325;-72
2023/01/20 11:23:40;;;;;;;;;;;;;;;1.27;84.38;96277.09;5066111;28;20436;-73
2023/01/20 11:26:12;;;;;;;;;;;;;;;1.42;83.98;96280.63;5073663;28;19963;-72
2023/01/20 11:28:44;;;;;;;;;;;;;;;1.52;84.79;96279.66;5075008;28;19966;-72
2023/01/20 11:31:10;;;;;;;;;;;;;;;1.53;84.45;96283.81;5074483;28;20404;-72
2023/01/20 11:33:36;;;;;;;;;;;;;;;1.58;83.91;96271.25;5074771;28;19956;-72
2023/01/20 11:36:04;;;;;;;;;;;;;;;1.57;83.44;96269.59;5074894;28;19997;-71
2023/01/20 11:38:31;;;;;;;;;;;;;;;1.51;83.44;96276.25;5074584;28;20395;-71
2023/01/20 11:40:57;;;;;;;;;;;;;;;1.31;83.23;96280.97;5074323;28;19938;-71
2023/01/20 11:43:32;;;;;;;;;;;;;;;1.20;84.48;96294.22;5074833;28;20435;-71
2023/01/20 11:46:15;;;;;;;;;;;;;;;1.14;84.46;96293.09;5072362;28;19944;-72
2023/01/20 11:48:41;;;;;;;;;;;;;;;1.14;84.60;96292.28;5074074;28;19967;-72
2023/01/20 11:51:25;;;;;;;;;;;;;;;1.24;84.91;96294.69;5074701;28;19949;-72
2023/01/20 11:54:05;;;;;;;;;;;;;;;1.18;82.76;96272.94;5062389;28;19947;-72
2023/01/20 11:56:36;;;;;;;;;;;;;;;1.01;84.21;96290.19;5072949;28;20336;-72
2023/01/20 11:59:03;;;;;;;;;;;;;;;0.93;84.52;96300.53;5074190;28;19953;-72
2023/01/20 12:01:37;;;;;;;;;;;;;;;0.85;82.52;96272.94;5073975;28;19950;-72
2023/01/20 12:04:11;;;;;;;;;;;;;;;0.92;84.63;96289.38;5074468;28;19973;-72
2023/01/20 12:06:45;;;;;;;;;;;;;;;1.08;85.77;96305.84;5074039;28;19957;-72
2023/01/20 12:09:14;;;;;;;;;;;;;;;1.27;84.94;96297.75;5073706;28;19967;-72
2023/01/20 12:11:49;;;;;;;;;;;;;;;1.25;84.29;96294.53;5073804;28;20433;-71
2023/01/20 12:14:22;;;;;;;;;;;;;;;1.23;83.60;96290.50;5074119;28;19949;-72
2023/01/20 12:16:52;;;;;;;;;;;;;;;1.24;83.68;96287.78;5074034;28;20397;-72
2023/01/20 12:19:19;;;;;;;;;;;;;;;1.36;82.87;96283.06;5074253;28;19951;-71
2023/01/20 12:21:48;;;;;;;;;;;;;;;1.33;82.93;96281.63;5073673;28;20436;-72
2023/01/20 12:24:24;;;;;;;;;;;;;;;1.46;83.68;96303.56;5073983;28;19954;-71
2023/01/20 12:26:50;;;;;;;;;;;;;;;1.51;82.80;96290.94;5057480;28;19944;-71
2023/01/20 12:29:19;;;;;;;;;;;;;;;1.61;82.50;96294.16;5074065;28;19972;-71
2023/01/20 12:31:47;;;;;;;;;;;;;;;1.63;82.20;96289.63;5073908;28;19956;-72
2023/01/20 12:34:15;;;;;;;;;;;;;;;1.65;83.29;96305.78;5073699;28;20312;-71
2023/01/20 12:36:43;;;;;;;;;;;;;;;1.67;82.77;96296.06;5073644;28;19944;-72
2023/01/20 12:39:09;;;;;;;;;;;;;;;1.67;80.85;96277.19;5073534;28;19958;-72
2023/01/20 12:41:57;;;;;;;;;;;;;;;1.74;83.10;96293.63;5073134;28;19975;-72
2023/01/20 12:44:31;;;;;;;;;;;;;;;1.85;80.16;96269.19;5064980;28;19952;-72
2023/01/20 12:47:07;;;;;;;;;;;;;;;1.95;80.00;96269.81;5073320;28;19952;-72
2023/01/20 12:49:45;;;;;;;;;;;;;;;1.94;79.75;96276.75;5073883;28;19966;-72
2023/01/20 12:52:40;;;;;;;;;;;;;;;2.02;80.62;96286.28;5073301;28;19943;-72
2023/01/20 12:55:18;;;;;;;;;;;;;;;2.18;80.13;96270.69;5059165;28;19964;-72
2023/01/20 12:57:54;;;;;;;;;;;;;;;2.25;79.72;96270.81;5072767;28;19959;-72
2023/01/20 13:00:19;;;;;;;;;;;;;;;2.22;80.44;96282.28;5073330;28;20010;-71
2023/01/20 13:03:05;;;;;;;;;;;;;;;2.20;79.68;96286.03;5073271;28;19949;-72